createdAt,value
2023-04-06T00:01:44.437Z,101215.63
2023-04-06T00:04:26.515Z,101218.91
2023-04-06T00:07:15.769Z,101221.66
2023-04-06T00:09:53.531Z,101211.19
2023-04-06T00:12:40.684Z,101210.38
2023-04-06T00:15:21.655Z,101212.41
2023-04-06T00:18:06.767Z,101208.75
2023-04-06T00:20:54.390Z,101204.69
2023-04-06T00:23:36.828Z,101210.69
2023-04-06T00:26:21.762Z,101214.31
2023-04-06T00:29:09.148Z,101211.81
2023-04-06T00:31:44.624Z,101204.56
2023-04-06T00:34:20.562Z,101198.91
2023-04-06T00:37:05.634Z,101195.25
2023-04-06T00:39:52.589Z,101202.50
2023-04-06T00:42:35.710Z,101197.28
2023-04-06T00:45:20.594Z,101193.19
2023-04-06T00:48:02.768Z,101197.66
2023-04-06T00:50:49.597Z,101197.22
2023-04-06T00:53:33.324Z,101209.28
2023-04-06T00:56:15.541Z,101195.94
2023-04-06T00:59:11.769Z,101196.75
2023-04-06T01:01:53.960Z,101194.78
2023-04-06T01:04:48.843Z,101194.03
2023-04-06T01:07:37.738Z,101197.66
2023-04-06T01:10:33.995Z,101187.72
2023-04-06T01:13:31.272Z,101187.72
2023-04-06T01:16:21.449Z,101182.94
2023-04-06T01:19:25.855Z,101189.28
2023-04-06T01:22:13.140Z,101184.72
2023-04-06T01:24:59.276Z,101177.88
2023-04-06T01:27:50.028Z,101182.31
2023-04-06T01:30:56.779Z,101177.41
2023-04-06T01:33:53.918Z,101181.72
2023-04-06T01:36:41.632Z,101176.91
2023-04-06T01:39:38.666Z,101176.81
2023-04-06T01:42:20.423Z,101180.00
2023-04-06T01:45:01.450Z,101175.53
2023-04-06T01:47:42.964Z,101182.00
2023-04-06T01:50:24.006Z,101184.00
2023-04-06T01:53:01.504Z,101177.56
2023-04-06T01:55:37.966Z,101186.06
2023-04-06T01:58:34.924Z,101175.47
2023-04-06T02:01:22.840Z,101173.41
2023-04-06T02:04:06.344Z,101170.22
2023-04-06T02:06:50.177Z,101170.97
2023-04-06T02:09:38.470Z,101171.78
2023-04-06T02:12:28.608Z,101171.31
2023-04-06T02:15:17.211Z,101175.34
2023-04-06T02:18:01.783Z,101170.09
2023-04-06T02:20:49.641Z,101171.72
2023-04-06T02:23:34.787Z,101186.63
2023-04-06T02:26:08.729Z,101173.28
2023-04-06T02:29:03.617Z,101173.28
2023-04-06T02:31:45.348Z,101174.00
2023-04-06T02:34:27.025Z,101179.28
2023-04-06T02:37:09.897Z,101183.28
2023-04-06T02:39:51.835Z,101178.44
2023-04-06T02:42:36.835Z,101184.00
2023-04-06T02:45:18.764Z,101183.19
2023-04-06T02:48:03.360Z,101189.28
2023-04-06T02:50:48.732Z,101186.84
2023-04-06T02:53:33.100Z,101187.22
2023-04-06T02:56:11.420Z,101191.66
2023-04-06T02:59:03.276Z,101183.53
2023-04-06T03:01:42.560Z,101185.94
2023-04-06T03:04:26.524Z,101185.13
2023-04-06T03:07:14.327Z,101189.50
2023-04-06T03:09:58.274Z,101181.00
2023-04-06T03:12:45.683Z,101178.19
2023-04-06T03:15:37.372Z,101175.34
2023-04-06T03:18:31.999Z,101171.28
2023-04-06T03:21:11.813Z,101179.38
2023-04-06T03:24:02.240Z,101167.66
2023-04-06T03:26:38.570Z,101168.47
2023-04-06T03:29:19.573Z,101172.09
2023-04-06T03:32:02.157Z,101176.09
2023-04-06T03:34:47.497Z,101174.03
2023-04-06T03:37:28.709Z,101178.47
2023-04-06T03:40:12.903Z,101167.59
2023-04-06T03:42:56.219Z,101169.59
2023-04-06T03:45:39.381Z,101177.66
2023-04-06T03:48:21.451Z,101174.84
2023-04-06T03:51:01.380Z,101172.81
2023-04-06T03:53:38.292Z,101175.66
2023-04-06T03:56:24.132Z,101169.19
2023-04-06T03:59:05.248Z,101176.38
2023-04-06T04:01:40.380Z,101173.66
2023-04-06T04:04:23.713Z,101172.41
2023-04-06T04:07:18.790Z,101171.59
2023-04-06T04:09:58.108Z,101170.75
2023-04-06T04:12:37.257Z,101175.22
2023-04-06T04:15:21.859Z,101167.94
2023-04-06T04:18:01.024Z,101182.84
2023-04-06T04:20:44.472Z,101180.38
2023-04-06T04:23:27.843Z,101180.03
2023-04-06T04:26:11.879Z,101178.38
2023-04-06T04:28:52.876Z,101182.41
2023-04-06T04:31:37.955Z,101183.22
2023-04-06T04:34:25.045Z,101182.78
2023-04-06T04:37:09.848Z,101179.19
2023-04-06T04:40:08.526Z,101179.13
2023-04-06T04:43:01.398Z,101186.41
2023-04-06T04:45:48.728Z,101172.31
2023-04-06T04:48:46.909Z,101183.66
2023-04-06T04:51:26.936Z,101189.38
2023-04-06T04:54:20.901Z,101192.53
2023-04-06T04:56:58.902Z,101193.72
2023-04-06T04:59:58.060Z,101190.56
2023-04-06T05:02:39.834Z,101180.53
2023-04-06T05:05:23.847Z,101179.31
2023-04-06T05:08:09.950Z,101194.63
2023-04-06T05:10:57.414Z,101186.25
2023-04-06T05:13:44.770Z,101191.91
2023-04-06T05:16:37.421Z,101191.13
2023-04-06T05:19:17.080Z,101193.94
2023-04-06T05:22:02.377Z,101204.03
2023-04-06T05:24:54.302Z,101203.66
2023-04-06T05:27:38.562Z,101198.47
2023-04-06T05:30:11.670Z,101199.22
2023-04-06T05:32:45.641Z,101198.84
2023-04-06T05:35:19.924Z,101203.31
2023-04-06T05:38:02.148Z,101201.38
2023-04-06T05:40:39.006Z,101205.38
2023-04-06T05:43:16.620Z,101202.91
2023-04-06T05:45:54.244Z,101208.47
2023-04-06T05:48:24.994Z,101219.47
2023-04-06T05:50:58.169Z,101217.06
2023-04-06T05:53:44.975Z,101218.78
2023-04-06T05:56:21.401Z,101218.94
2023-04-06T05:59:02.308Z,101218.75
2023-04-06T06:01:41.378Z,101217.31
2023-04-06T06:04:15.033Z,101217.31
2023-04-06T06:06:53.880Z,101208.66
2023-04-06T06:09:46.907Z,101218.25
2023-04-06T06:12:52.118Z,101214.00
2023-04-06T06:15:33.454Z,101226.63
2023-04-06T06:18:17.848Z,101225.19
2023-04-06T06:20:55.533Z,101216.78
2023-04-06T06:23:31.306Z,101219.19
2023-04-06T06:26:06.052Z,101215.22
2023-04-06T06:28:42.119Z,101219.59
2023-04-06T06:31:24.435Z,101225.06
2023-04-06T06:33:56.952Z,101225.06
2023-04-06T06:36:34.245Z,101216.22
2023-04-06T06:39:16.639Z,101223.50
2023-04-06T06:41:48.136Z,101219.03
2023-04-06T06:44:18.555Z,101223.06
2023-04-06T06:46:56.593Z,101220.63
2023-04-06T06:49:29.575Z,101217.47
2023-04-06T06:52:14.270Z,101223.91
2023-04-06T06:54:54.936Z,101222.00
2023-04-06T06:57:27.202Z,101224.72
2023-04-06T07:00:01.290Z,101227.63
2023-04-06T07:02:40.591Z,101222.47
2023-04-06T07:08:01.499Z,101218.78
2023-04-06T07:10:41.142Z,101219.47
2023-04-06T07:13:24.881Z,101214.34
2023-04-06T07:16:05.326Z,101219.22
2023-04-06T07:18:40.206Z,101217.59
2023-04-06T07:21:22.320Z,101218.91
2023-04-06T07:23:58.849Z,101216.84
2023-04-06T07:26:33.635Z,101223.41
2023-04-06T07:29:13.741Z,101222.69
2023-04-06T07:31:47.452Z,101210.97
2023-04-06T07:34:27.126Z,101218.34
2023-04-06T07:37:03.993Z,101221.94
2023-04-06T07:39:35.764Z,101213.84
2023-04-06T07:42:06.352Z,101230.41
2023-04-06T07:44:46.508Z,101223.47
2023-04-06T07:47:18.232Z,101225.44
2023-04-06T07:49:52.253Z,101230.03
2023-04-06T07:52:29.066Z,101229.50
2023-04-06T07:55:00.178Z,101233.00
2023-04-06T07:57:37.060Z,101234.47
2023-04-06T08:00:07.992Z,101231.63
2023-04-06T08:02:39.839Z,101233.66
2023-04-06T08:05:15.363Z,101227.19
2023-04-06T08:07:54.256Z,101232.44
2023-04-06T08:10:35.667Z,101234.97
2023-04-06T08:13:14.647Z,101230.03
2023-04-06T08:15:54.765Z,101226.50
2023-04-06T08:18:41.299Z,101225.69
2023-04-06T08:21:19.717Z,101225.69
2023-04-06T08:23:55.541Z,101224.06
2023-04-06T08:26:27.175Z,101228.88
2023-04-06T08:29:05.073Z,101231.06
2023-04-06T08:31:46.448Z,101228.66
2023-04-06T08:34:17.186Z,101216.63
2023-04-06T08:36:49.370Z,101227.50
2023-04-06T08:39:29.333Z,101231.19
2023-04-06T08:42:04.328Z,101223.97
2023-04-06T08:44:35.088Z,101223.56
2023-04-06T08:47:24.647Z,101227.25
2023-04-06T08:49:57.660Z,101209.41
2023-04-06T08:52:38.752Z,101213.91
2023-04-06T08:55:12.983Z,101212.00
2023-04-06T08:57:47.376Z,101203.97
2023-04-06T09:00:20.700Z,101211.19
2023-04-06T09:03:00.674Z,101209.19
2023-04-06T09:05:36.166Z,101197.72
2023-04-06T09:08:15.212Z,101200.53
2023-04-06T09:10:48.777Z,101190.41
2023-04-06T09:13:27.591Z,101186.47
2023-04-06T09:16:12.252Z,101190.13
2023-04-06T09:18:49.644Z,101191.72
2023-04-06T09:21:29.661Z,101187.28
2023-04-06T09:24:06.975Z,101186.88
2023-04-06T09:26:49.593Z,101184.13
2023-04-06T09:29:28.113Z,101181.66
2023-04-06T09:32:11.397Z,101177.63
2023-04-06T09:34:42.692Z,101180.59
2023-04-06T09:37:22.992Z,101178.19
2023-04-06T09:40:07.340Z,101173.31
2023-04-06T09:42:46.509Z,101166.91
2023-04-06T09:45:15.991Z,101169.34
2023-04-06T09:47:47.186Z,101163.75
2023-04-06T09:50:20.941Z,101162.09
2023-04-06T09:53:03.042Z,101164.84
2023-04-06T09:55:48.625Z,101159.22
2023-04-06T09:58:32.030Z,101158.50
2023-04-06T10:01:10.373Z,101145.09
2023-04-06T10:03:48.132Z,101148.81
2023-04-06T10:06:34.503Z,101141.53
2023-04-06T10:09:16.413Z,101140.69
2023-04-06T10:11:51.568Z,101129.91
2023-04-06T10:14:35.698Z,101127.91
2023-04-06T10:17:13.272Z,101125.09
2023-04-06T10:20:12.647Z,101123.50
2023-04-06T10:22:59.020Z,101124.25
2023-04-06T10:25:41.816Z,101122.69
2023-04-06T10:28:26.790Z,101121.09
2023-04-06T10:31:05.588Z,101105.72
2023-04-06T10:33:45.648Z,101107.38
2023-04-06T10:36:29.237Z,101115.06
2023-04-06T10:39:03.258Z,101114.31
2023-04-06T10:41:42.276Z,101113.94
2023-04-06T10:44:24.669Z,101103.41
2023-04-06T10:47:05.582Z,101100.63
2023-04-06T10:49:36.201Z,101098.91
2023-04-06T10:52:14.487Z,101109.44
2023-04-06T10:54:56.933Z,101102.56
2023-04-06T10:57:34.049Z,101100.19
2023-04-06T11:00:12.943Z,101086.09
2023-04-06T11:02:48.814Z,101085.31
2023-04-06T11:05:19.019Z,101073.22
2023-04-06T11:07:55.237Z,101074.44
2023-04-06T11:10:26.294Z,101079.38
2023-04-06T11:12:58.081Z,101076.91
2023-04-06T11:15:38.979Z,101076.53
2023-04-06T11:18:12.539Z,101054.41
2023-04-06T11:20:53.441Z,101057.75
2023-04-06T11:23:35.119Z,101062.69
2023-04-06T11:26:03.955Z,101061.94
2023-04-06T11:28:37.048Z,101048.66
2023-04-06T11:31:19.177Z,101052.31
2023-04-06T11:34:00.577Z,101032.91
2023-04-06T11:36:31.395Z,101040.28
2023-04-06T11:38:59.356Z,101028.16
2023-04-06T11:41:37.149Z,101038.69
2023-04-06T11:44:09.936Z,101039.88
2023-04-06T11:46:43.240Z,101031.00
2023-04-06T11:49:17.018Z,101028.94
2023-04-06T11:51:45.146Z,101028.78
2023-04-06T11:54:18.086Z,101026.41
2023-04-06T11:56:48.114Z,101028.06
2023-04-06T11:59:22.616Z,101022.81
2023-04-06T12:01:50.565Z,101024.38
2023-04-06T12:04:27.046Z,101006.16
2023-04-06T12:07:00.118Z,101013.03
2023-04-06T12:09:27.785Z,101008.97
2023-04-06T12:12:03.712Z,101004.13
2023-04-06T12:14:31.939Z,100994.28
2023-04-06T12:17:05.924Z,100987.03
2023-04-06T12:19:41.720Z,100993.47
2023-04-06T12:22:20.234Z,100990.22
2023-04-06T12:24:56.598Z,100979.66
2023-04-06T12:27:35.928Z,100976.84
2023-04-06T12:30:10.980Z,100979.72
2023-04-06T12:32:48.903Z,100982.47
2023-04-06T12:35:22.236Z,100973.59
2023-04-06T12:37:55.065Z,100970.41
2023-04-06T12:40:27.894Z,100957.81
2023-04-06T12:42:59.854Z,100963.47
2023-04-06T12:45:38.674Z,100969.91
2023-04-06T12:48:18.507Z,100955.47
2023-04-06T12:51:02.056Z,100955.75
2023-04-06T12:53:37.110Z,100961.47
2023-04-06T12:56:18.407Z,100954.97
2023-04-06T12:58:49.716Z,100951.81
2023-04-06T13:01:26.881Z,100950.94
2023-04-06T13:04:01.484Z,100939.63
2023-04-06T13:06:34.958Z,100938.03
2023-04-06T13:09:06.677Z,100937.31
2023-04-06T13:11:42.540Z,100936.84
2023-04-06T13:14:21.962Z,100934.44
2023-04-06T13:16:58.892Z,100931.13
2023-04-06T13:19:36.597Z,100929.91
2023-04-06T13:22:17.796Z,100922.28
2023-04-06T13:24:54.727Z,100929.53
2023-04-06T13:27:37.746Z,100930.75
2023-04-06T13:30:17.996Z,100925.13
2023-04-06T13:32:57.665Z,100920.31
2023-04-06T13:35:27.800Z,100909.00
2023-04-06T13:37:58.490Z,100914.16
2023-04-06T13:40:28.793Z,100910.09
2023-04-06T13:43:02.439Z,100908.16
2023-04-06T13:45:41.700Z,100905.34
2023-04-06T13:48:10.577Z,100904.56
2023-04-06T13:50:40.719Z,100893.59
2023-04-06T13:53:15.872Z,100896.91
2023-04-06T13:55:54.065Z,100892.09
2023-04-06T13:58:21.894Z,100890.81
2023-04-06T14:00:49.758Z,100885.19
2023-04-06T14:03:18.278Z,100886.41
2023-04-06T14:05:52.071Z,100888.47
2023-04-06T14:08:24.718Z,100892.69
2023-04-06T14:10:57.717Z,100884.19
2023-04-06T14:13:28.562Z,100874.59
2023-04-06T14:16:00.109Z,100884.69
2023-04-06T14:18:32.154Z,100877.84
2023-04-06T14:21:04.626Z,100883.09
2023-04-06T14:23:38.179Z,100880.69
2023-04-06T14:26:18.403Z,100881.16
2023-04-06T14:28:54.687Z,100882.44
2023-04-06T14:31:25.727Z,100877.16
2023-04-06T14:34:03.945Z,100867.19
2023-04-06T14:36:39.464Z,100872.13
2023-04-06T14:39:13.125Z,100866.81
2023-04-06T14:41:49.828Z,100870.63
2023-04-06T14:44:28.153Z,100872.66
2023-04-06T14:46:59.132Z,100868.59
2023-04-06T14:49:35.239Z,100861.66
2023-04-06T14:52:11.902Z,100867.31
2023-04-06T14:54:48.395Z,100859.25
2023-04-06T14:57:18.431Z,100862.53
2023-04-06T14:59:55.930Z,100860.16
2023-04-06T15:02:32.242Z,100863.41
2023-04-06T15:05:05.697Z,100857.34
2023-04-06T15:07:46.549Z,100853.25
2023-04-06T15:10:22.654Z,100850.81
2023-04-06T15:13:00.008Z,100858.41
2023-04-06T15:15:33.296Z,100855.91
2023-04-06T15:18:14.154Z,100844.38
2023-04-06T15:21:03.073Z,100858.69
2023-04-06T15:23:38.883Z,100848.94
2023-04-06T15:26:15.138Z,100842.59
2023-04-06T15:28:45.794Z,100848.22
2023-04-06T15:34:26.962Z,100847.19
2023-04-06T15:37:08.184Z,100844.13
2023-04-06T15:39:44.468Z,100841.63
2023-04-06T15:42:21.336Z,100841.28
2023-04-06T15:44:52.328Z,100835.69
2023-04-06T15:47:27.746Z,100832.16
2023-04-06T15:50:03.049Z,100833.75
2023-04-06T15:52:39.879Z,100829.69
2023-04-06T15:55:13.118Z,100833.88
2023-04-06T15:57:46.506Z,100831.50
2023-04-06T16:00:21.224Z,100822.25
2023-04-06T16:02:57.745Z,100828.81
2023-04-06T16:05:47.983Z,100830.84
2023-04-06T16:08:19.457Z,100830.47
2023-04-06T16:10:50.622Z,100832.94
2023-04-06T16:13:24.253Z,100832.59
2023-04-06T16:15:55.647Z,100830.97
2023-04-06T16:18:29.312Z,100829.78
2023-04-06T16:21:06.237Z,100833.44
2023-04-06T16:23:37.020Z,100835.44
2023-04-06T16:26:15.609Z,100828.19
2023-04-06T16:28:47.519Z,100839.94
2023-04-06T16:31:29.947Z,100840.31
2023-04-06T16:34:01.101Z,100848.81
2023-04-06T16:36:38.869Z,100841.13
2023-04-06T16:39:13.059Z,100836.28
2023-04-06T16:41:41.921Z,100837.50
2023-04-06T16:44:15.101Z,100843.16
2023-04-06T16:46:51.749Z,100846.81
2023-04-06T16:49:21.002Z,100849.63
2023-04-06T16:51:53.060Z,100848.84
2023-04-06T16:54:32.266Z,100845.16
2023-04-06T16:57:04.326Z,100855.69
2023-04-06T16:59:35.405Z,100858.13
2023-04-06T17:02:08.802Z,100850.03
2023-04-06T17:04:42.093Z,100853.28
2023-04-06T17:07:14.873Z,100857.34
2023-04-06T17:09:45.562Z,100852.06
2023-04-06T17:12:17.131Z,100848.84
2023-04-06T17:14:49.829Z,100852.06
2023-04-06T17:17:17.972Z,100841.53
2023-04-06T17:19:46.337Z,100847.19
2023-04-06T17:22:25.715Z,100843.56
2023-04-06T17:24:57.376Z,100837.84
2023-04-06T17:27:29.124Z,100841.50
2023-04-06T17:29:57.154Z,100837.41
2023-04-06T17:32:31.116Z,100839.03
2023-04-06T17:35:03.860Z,100839.47
2023-04-06T17:37:32.159Z,100847.91
2023-04-06T17:40:09.287Z,100849.94
2023-04-06T17:42:51.960Z,100847.06
2023-04-06T17:45:26.013Z,100847.44
2023-04-06T17:48:05.043Z,100843.75
2023-04-06T17:50:43.023Z,100853.47
2023-04-06T17:53:19.206Z,100849.81
2023-04-06T17:55:53.787Z,100853.88
2023-04-06T17:58:29.922Z,100847.34
2023-04-06T18:01:11.378Z,100856.66
2023-04-06T18:03:47.863Z,100858.25
2023-04-06T18:06:16.911Z,100869.16
2023-04-06T18:08:53.344Z,100861.00
2023-04-06T18:11:32.677Z,100867.09
2023-04-06T18:14:11.640Z,100866.63
2023-04-06T18:16:44.917Z,100878.75
2023-04-06T18:19:15.630Z,100874.28
2023-04-06T18:21:43.296Z,100878.72
2023-04-06T18:24:40.613Z,100878.31
2023-04-06T18:27:13.858Z,100873.03
2023-04-06T18:29:45.448Z,100876.66
2023-04-06T18:32:20.981Z,100888.78
2023-04-06T18:34:57.479Z,100881.09
2023-04-06T18:37:31.049Z,100873.00
2023-04-06T18:40:11.326Z,100874.59
2023-04-06T18:42:44.282Z,100878.56
2023-04-06T18:45:17.656Z,100881.84
2023-04-06T18:47:56.235Z,100871.75
2023-04-06T18:50:31.736Z,100881.84
2023-04-06T18:53:05.378Z,100887.44
2023-04-06T18:55:38.552Z,100888.63
2023-04-06T18:58:13.488Z,100882.56
2023-04-06T19:00:51.716Z,100885.84
2023-04-06T19:03:26.568Z,100889.00
2023-04-06T19:06:05.897Z,100894.69
2023-04-06T19:08:38.650Z,100895.47
2023-04-06T19:11:16.005Z,100894.69
2023-04-06T19:13:54.482Z,100893.44
2023-04-06T19:16:30.166Z,100899.50
2023-04-06T19:19:06.956Z,100893.84
2023-04-06T19:21:40.404Z,100897.03
2023-04-06T19:24:17.476Z,100903.13
2023-04-06T19:26:48.440Z,100903.13
2023-04-06T19:29:18.383Z,100908.75
2023-04-06T19:31:57.527Z,100909.63
2023-04-06T19:34:35.430Z,100913.25
2023-04-06T19:37:31.296Z,100905.19
2023-04-06T19:40:10.521Z,100916.03
2023-04-06T19:42:48.236Z,100915.28
2023-04-06T19:45:19.236Z,100929.81
2023-04-06T19:47:49.343Z,100924.53
2023-04-06T19:50:24.893Z,100935.03
2023-04-06T19:53:02.844Z,100938.28
2023-04-06T19:55:39.210Z,100930.13
2023-04-06T19:58:15.161Z,100929.31
2023-04-06T20:00:54.030Z,100929.75
2023-04-06T20:03:28.705Z,100927.75
2023-04-06T20:06:03.912Z,100934.19
2023-04-06T20:08:32.544Z,100931.75
2023-04-06T20:11:10.689Z,100937.38
2023-04-06T20:13:47.081Z,100938.19
2023-04-06T20:16:22.250Z,100932.94
2023-04-06T20:18:57.229Z,100937.38
2023-04-06T20:21:32.832Z,100943.78
2023-04-06T20:24:11.462Z,100932.88
2023-04-06T20:26:47.968Z,100934.88
2023-04-06T20:29:17.617Z,100942.56
2023-04-06T20:31:58.348Z,100943.75
2023-04-06T20:34:32.050Z,100946.88
2023-04-06T20:37:08.873Z,100948.09
2023-04-06T20:39:46.572Z,100947.34
2023-04-06T20:42:19.083Z,100957.06
2023-04-06T20:44:52.393Z,100961.09
2023-04-06T20:47:26.324Z,100952.91
2023-04-06T20:49:56.214Z,100951.25
2023-04-06T20:52:31.534Z,100955.66
2023-04-06T20:55:09.320Z,100956.47
2023-04-06T20:57:46.158Z,100956.44
2023-04-06T21:00:21.953Z,100958.06
2023-04-06T21:02:54.212Z,100958.47
2023-04-06T21:05:29.506Z,100964.47
2023-04-06T21:08:12.952Z,100958.75
2023-04-06T21:10:40.587Z,100966.13
2023-04-06T21:13:17.131Z,100962.03
2023-04-06T21:15:50.900Z,100963.22
2023-04-06T21:18:28.021Z,100968.03
2023-04-06T21:21:03.750Z,100968.47
2023-04-06T21:23:39.206Z,100967.66
2023-04-06T21:26:13.409Z,100953.56
2023-04-06T21:28:46.915Z,100962.03
2023-04-06T21:31:21.656Z,100971.25
2023-04-06T21:33:56.801Z,100965.69
2023-04-06T21:36:27.513Z,100961.25
2023-04-06T21:39:02.982Z,100963.97
2023-04-06T21:41:37.403Z,100965.63
2023-04-06T21:44:07.064Z,100968.03
2023-04-06T21:46:46.410Z,100958.31
2023-04-06T21:49:22.041Z,100966.78
2023-04-06T21:51:55.324Z,100955.53
2023-04-06T21:54:25.312Z,100963.22
2023-04-06T21:56:58.921Z,100958.44
2023-04-06T21:59:35.199Z,100966.38
2023-04-06T22:02:08.043Z,100960.31
2023-04-06T22:04:40.962Z,100961.13
2023-04-06T22:07:16.209Z,100954.31
2023-04-06T22:09:53.795Z,100955.09
2023-04-06T22:12:27.149Z,100953.53
2023-04-06T22:15:04.701Z,100968.44
2023-04-06T22:17:40.477Z,100955.53
2023-04-06T22:20:10.474Z,100954.66
2023-04-06T22:22:52.106Z,100958.69
2023-04-06T22:25:27.765Z,100955.03
2023-04-06T22:28:05.351Z,100963.50
2023-04-06T22:30:41.201Z,100967.03
2023-04-06T22:33:16.696Z,100961.81
2023-04-06T22:35:55.824Z,100964.59
2023-04-06T22:38:26.002Z,100964.59
2023-04-06T22:41:06.028Z,100952.88
2023-04-06T22:43:42.077Z,100959.00
2023-04-06T22:46:18.080Z,100951.25
2023-04-06T22:48:56.266Z,100943.09
2023-04-06T22:51:31.753Z,100942.72
2023-04-06T22:54:02.358Z,100945.09
2023-04-06T22:56:32.476Z,100945.09
2023-04-06T22:59:07.566Z,100943.94
2023-04-06T23:01:45.925Z,100943.06
2023-04-06T23:04:18.798Z,100947.09
2023-04-06T23:06:51.782Z,100945.47
2023-04-06T23:09:28.444Z,100935.34
2023-04-06T23:12:02.035Z,100942.25
2023-04-06T23:14:37.418Z,100936.16
2023-04-06T23:17:15.579Z,100941.44
2023-04-06T23:19:48.844Z,100939.81
2023-04-06T23:22:24.740Z,100945.47
2023-04-06T23:24:59.868Z,100946.28
2023-04-06T23:27:35.721Z,100942.22
2023-04-06T23:30:13.809Z,100944.25
2023-04-06T23:32:48.899Z,100940.97
2023-04-06T23:35:24.051Z,100942.22
2023-04-06T23:37:57.460Z,100941.44
2023-04-06T23:40:31.502Z,100949.91
2023-04-06T23:43:06.323Z,100943.50
2023-04-06T23:45:45.653Z,100936.59
2023-04-06T23:48:22.204Z,100940.22
2023-04-06T23:50:58.374Z,100934.56
2023-04-06T23:53:34.617Z,100932.91
2023-04-06T23:56:07.264Z,100932.50
2023-04-06T23:58:38.727Z,100930.84
